Time;durP1;ratioP1;P1;durP2;ratioP2;P2;SDS_P1;SDS_P2;PMS_P1;PMS_P2;Temp;Humidity;BMP_temperature;BMP_pressure;BME280_temperature;BME280_humidity;BME280_pressure;Samples;Min_cycle;Max_cycle;Signal;HPM_P1;HPM_P2
2023/07/06 04:01:31;;;;;;;0.60;0.10;;;18.30;1.00;;;;;;5595857;23;20497;-72
2023/07/06 04:03:59;;;;;;;0.60;0.10;;;18.10;1.00;;;;;;4953944;29;20446;-71
2023/07/06 04:06:29;;;;;;;0.60;0.10;;;18.10;1.00;;;;;;4952804;29;20449;-72
2023/07/06 04:08:57;;;;;;;0.60;0.20;;;18.10;1.00;;;;;;4953486;29;20446;-73
2023/07/06 04:11:25;;;;;;;0.60;0.20;;;18.20;1.00;;;;;;4954269;28;20469;-73
2023/07/06 04:13:57;;;;;;;0.60;0.10;;;18.20;1.00;;;;;;4955250;28;20452;-73
2023/07/06 04:16:26;;;;;;;0.60;0.30;;;;;;;;;;4973673;23;20573;-79
2023/07/06 04:18:56;;;;;;;0.60;0.20;;;;;;;;;;4949922;29;20457;-80
2023/07/06 04:21:24;;;;;;;0.60;0.10;;;18.10;1.00;;;;;;4946010;29;20470;-81
2023/07/06 04:23:52;;;;;;;0.60;0.10;;;;;;;;;;4964578;29;20455;-81
2023/07/06 04:26:22;;;;;;;0.60;0.13;;;18.40;1.00;;;;;;4964145;29;20486;-80
2023/07/06 04:28:50;;;;;;;0.60;0.10;;;18.40;1.00;;;;;;4943596;29;20458;-80
2023/07/06 04:31:19;;;;;;;0.60;0.10;;;18.50;1.00;;;;;;4962157;29;20797;-81
2023/07/06 04:33:47;;;;;;;0.60;0.10;;;18.60;1.00;;;;;;4951143;29;20514;-81
2023/07/06 04:36:18;;;;;;;0.60;0.20;;;;;;;;;;4960574;29;20518;-80
2023/07/06 04:38:46;;;;;;;0.60;0.10;;;18.50;1.00;;;;;;4951845;29;20450;-79
2023/07/06 04:41:15;;;;;;;0.60;0.10;;;18.50;1.00;;;;;;4944467;29;20951;-79
2023/07/06 04:43:43;;;;;;;0.60;0.20;;;18.50;1.00;;;;;;4962716;29;20489;-81
2023/07/06 04:46:12;;;;;;;0.70;0.30;;;18.40;1.00;;;;;;4957534;29;21081;-80
2023/07/06 04:48:41;;;;;;;0.60;0.20;;;18.50;1.00;;;;;;4945099;29;20453;-80
2023/07/06 04:51:09;;;;;;;0.60;0.10;;;18.50;1.00;;;;;;4953925;29;20464;-76
2023/07/06 04:53:39;;;;;;;0.60;0.20;;;18.60;1.00;;;;;;4938948;29;20475;-76
2023/07/06 04:56:07;;;;;;;0.60;0.10;;;18.70;1.00;;;;;;4940868;29;20568;-77
2023/07/06 04:58:36;;;;;;;0.60;0.20;;;18.80;1.00;;;;;;4950064;29;21012;-77
2023/07/06 05:01:06;;;;;;;0.60;0.10;;;18.90;1.00;;;;;;4942071;29;21058;-76
2023/07/06 05:03:35;;;;;;;0.60;0.10;;;18.90;1.00;;;;;;4922564;29;21015;-76
2023/07/06 05:06:07;;;;;;;0.60;0.10;;;19.10;1.00;;;;;;4936424;29;20480;-78
2023/07/06 05:08:35;;;;;;;0.60;0.20;;;19.20;1.00;;;;;;4956418;28;20553;-77
2023/07/06 05:11:05;;;;;;;0.70;0.30;;;19.30;1.00;;;;;;4945979;29;20485;-78
2023/07/06 05:13:33;;;;;;;0.60;0.20;;;19.40;1.00;;;;;;4958544;29;20449;-77
2023/07/06 05:16:01;;;;;;;0.60;0.10;;;19.40;1.00;;;;;;4958171;29;20489;-76
2023/07/06 05:18:29;;;;;;;0.60;0.20;;;19.50;1.00;;;;;;4940773;29;20538;-76
2023/07/06 05:20:58;;;;;;;0.60;0.10;;;19.40;1.00;;;;;;4939327;29;20456;-77
2023/07/06 05:23:28;;;;;;;0.60;0.20;;;19.50;1.00;;;;;;4938743;29;20489;-77
2023/07/06 05:26:00;;;;;;;0.60;0.10;;;19.60;1.00;;;;;;4948505;29;20478;-77
2023/07/06 05:28:31;;;;;;;0.60;0.10;;;19.70;1.00;;;;;;4964116;29;20455;-77
2023/07/06 05:31:02;;;;;;;0.60;0.10;;;19.80;1.00;;;;;;4964229;29;20922;-77
2023/07/06 05:33:30;;;;;;;0.60;0.20;;;19.80;1.00;;;;;;4971319;29;20439;-77
2023/07/06 05:35:58;;;;;;;0.60;0.10;;;19.50;1.00;;;;;;4972038;29;20502;-77
2023/07/06 05:38:26;;;;;;;0.60;0.10;;;;;;;;;;4945155;29;20460;-77
2023/07/06 05:40:54;;;;;;;0.60;0.20;;;19.60;1.00;;;;;;4938992;29;20514;-77
2023/07/06 05:43:23;;;;;;;0.60;0.13;;;19.70;1.00;;;;;;4939060;29;20493;-78
2023/07/06 05:45:52;;;;;;;3.70;3.50;;;19.60;1.00;;;;;;4938259;29;20472;-76
2023/07/06 05:48:20;;;;;;;0.70;0.20;;;19.40;1.00;;;;;;4951842;29;21029;-77
2023/07/06 05:50:48;;;;;;;0.60;0.20;;;;;;;;;;4957293;29;20458;-77
2023/07/06 05:53:16;;;;;;;0.70;0.20;;;19.30;1.00;;;;;;4918603;29;20460;-77
2023/07/06 05:55:44;;;;;;;1.10;0.40;;;19.40;1.00;;;;;;4918900;29;20472;-78
2023/07/06 05:58:13;;;;;;;0.60;0.13;;;19.30;1.00;;;;;;4944277;29;20783;-77
2023/07/06 06:00:41;;;;;;;0.60;0.10;;;19.20;1.00;;;;;;4956699;29;20451;-72
2023/07/06 06:03:11;;;;;;;1.97;1.83;;;19.20;1.00;;;;;;4955405;29;20537;-74
2023/07/06 06:05:41;;;;;;;3.60;1.60;;;18.90;1.00;;;;;;4955694;29;20501;-71
2023/07/06 06:08:09;;;;;;;0.60;0.10;;;18.80;1.00;;;;;;4955534;29;20513;-73
2023/07/06 06:10:37;;;;;;;1.37;0.50;;;18.80;1.00;;;;;;4955462;29;21042;-72
2023/07/06 06:13:05;;;;;;;0.60;0.20;;;18.80;1.00;;;;;;4954673;29;21223;-72
2023/07/06 06:15:33;;;;;;;0.60;0.20;;;18.70;1.00;;;;;;4950757;29;20538;-72
2023/07/06 06:18:02;;;;;;;0.60;0.20;;;18.70;1.00;;;;;;4917114;29;20452;-74
2023/07/06 06:20:31;;;;;;;0.60;0.10;;;18.70;1.00;;;;;;4917127;29;20452;-73
2023/07/06 06:23:00;;;;;;;0.60;0.10;;;18.80;1.00;;;;;;4912554;29;21050;-73
2023/07/06 06:25:28;;;;;;;0.60;0.20;;;18.90;1.00;;;;;;4915514;29;20453;-72
2023/07/06 06:27:57;;;;;;;0.60;0.20;;;18.90;1.00;;;;;;4935897;29;20455;-72
2023/07/06 06:30:25;;;;;;;1.43;0.40;;;18.80;1.00;;;;;;4903640;29;20546;-73
2023/07/06 06:32:52;;;;;;;0.70;0.30;;;18.50;1.00;;;;;;4899136;29;20480;-72
2023/07/06 06:35:24;;;;;;;0.60;0.10;;;;;;;;;;4899548;29;20452;-72
2023/07/06 06:37:53;;;;;;;0.60;0.20;;;18.70;1.00;;;;;;4902738;29;20457;-72
2023/07/06 06:40:23;;;;;;;0.93;0.47;;;18.60;1.00;;;;;;4918594;29;20486;-73
2023/07/06 06:42:51;;;;;;;0.60;0.17;;;18.70;1.00;;;;;;4917126;29;20957;-72
2023/07/06 06:45:21;;;;;;;0.70;0.33;;;18.70;1.00;;;;;;4917285;29;20512;-74
2023/07/06 06:47:50;;;;;;;0.60;0.20;;;18.80;1.00;;;;;;4918935;29;20453;-73
2023/07/06 06:50:19;;;;;;;0.60;0.10;;;18.90;1.00;;;;;;4918866;29;20899;-74
2023/07/06 06:52:49;;;;;;;0.60;0.30;;;19.00;1.00;;;;;;4922442;29;20455;-73
2023/07/06 06:55:18;;;;;;;0.60;0.20;;;18.90;1.00;;;;;;4928396;29;20507;-74
2023/07/06 06:57:47;;;;;;;0.60;0.27;;;18.80;1.00;;;;;;4917281;29;20495;-74
2023/07/06 07:00:16;;;;;;;0.60;0.10;;;18.90;1.00;;;;;;4936274;29;20454;-73
2023/07/06 07:02:44;;;;;;;0.90;0.70;;;18.90;1.00;;;;;;4936073;29;20617;-73
2023/07/06 07:05:15;;;;;;;0.60;0.20;;;19.00;1.00;;;;;;4933727;29;20838;-74
2023/07/06 07:07:43;;;;;;;0.60;0.10;;;19.00;1.00;;;;;;4917045;29;20978;-72
2023/07/06 07:10:11;;;;;;;1.37;0.83;;;19.20;1.00;;;;;;4921846;29;20547;-73
2023/07/06 07:12:42;;;;;;;0.60;0.10;;;19.20;1.00;;;;;;4907436;29;20462;-74
2023/07/06 07:15:14;;;;;;;0.60;0.10;;;19.40;1.00;;;;;;4897707;29;20481;-73
2023/07/06 07:17:42;;;;;;;0.70;0.20;;;19.60;1.00;;;;;;4930576;29;20894;-73
2023/07/06 07:20:13;;;;;;;0.60;0.10;;;19.70;1.00;;;;;;4935928;29;20455;-73
2023/07/06 07:22:41;;;;;;;0.90;0.30;;;19.70;1.00;;;;;;4970282;28;20541;-73
2023/07/06 07:25:10;;;;;;;0.60;0.30;;;19.70;1.00;;;;;;4973505;28;20930;-72
2023/07/06 07:27:38;;;;;;;2.00;0.40;;;19.60;1.00;;;;;;4973479;28;20987;-72
2023/07/06 07:30:11;;;;;;;0.80;0.40;;;19.60;1.00;;;;;;4973908;28;20851;-73
2023/07/06 07:32:41;;;;;;;0.60;0.20;;;19.60;1.00;;;;;;4973160;28;20461;-73
2023/07/06 07:35:09;;;;;;;0.60;0.10;;;19.60;1.00;;;;;;4972459;28;20438;-73
2023/07/06 07:37:38;;;;;;;0.80;0.30;;;19.60;1.00;;;;;;4972594;28;20575;-73
2023/07/06 07:40:07;;;;;;;0.60;0.30;;;19.50;1.00;;;;;;4973145;28;20983;-74
2023/07/06 07:42:36;;;;;;;0.60;0.10;;;19.50;1.00;;;;;;4972463;28;20544;-73
2023/07/06 07:45:05;;;;;;;0.60;0.10;;;19.60;1.00;;;;;;4973109;28;20495;-73
2023/07/06 07:47:34;;;;;;;0.60;0.10;;;19.80;1.00;;;;;;4972705;28;20841;-73
2023/07/06 07:50:05;;;;;;;0.60;0.20;;;19.80;1.00;;;;;;4974239;28;20447;-74
2023/07/06 07:52:34;;;;;;;0.60;0.10;;;19.90;1.00;;;;;;4973628;28;20527;-74
2023/07/06 07:55:02;;;;;;;0.60;0.10;;;19.90;1.00;;;;;;4973835;28;20507;-73
2023/07/06 07:57:30;;;;;;;0.60;0.10;;;20.10;1.00;;;;;;4973563;28;20470;-74
2023/07/06 07:59:58;;;;;;;1.40;0.57;;;20.30;1.00;;;;;;4973949;28;20453;-73
2023/07/06 08:02:26;;;;;;;0.60;0.20;;;20.30;1.00;;;;;;4973724;28;20453;-74
2023/07/06 08:04:57;;;;;;;0.77;0.30;;;20.40;1.00;;;;;;4973597;28;20477;-74
2023/07/06 08:07:25;;;;;;;0.60;0.10;;;20.30;1.00;;;;;;4973814;28;20878;-73
2023/07/06 08:09:54;;;;;;;0.60;0.30;;;20.30;1.00;;;;;;4974397;28;20450;-73
2023/07/06 08:12:21;;;;;;;0.60;0.13;;;20.40;1.00;;;;;;4973322;28;20456;-73
2023/07/06 08:14:49;;;;;;;0.60;0.13;;;20.40;1.00;;;;;;4937136;28;20460;-73
2023/07/06 08:17:17;;;;;;;0.60;0.10;;;20.40;1.00;;;;;;4935210;29;20941;-73
2023/07/06 08:19:47;;;;;;;0.60;0.10;;;20.40;1.00;;;;;;4934981;29;21035;-73
2023/07/06 08:22:36;;;;;;;0.80;0.60;;;20.60;1.00;;;;;;4934994;29;20448;-73
2023/07/06 08:25:08;;;;;;;0.60;0.20;;;20.60;1.00;;;;;;4934795;29;20956;-73
2023/07/06 08:27:40;;;;;;;0.60;0.20;;;20.50;1.00;;;;;;4935074;29;20467;-73
2023/07/06 08:30:09;;;;;;;0.97;0.30;;;20.70;1.00;;;;;;4935110;29;20483;-73
2023/07/06 08:32:37;;;;;;;0.60;0.20;;;20.60;1.00;;;;;;4935316;29;20547;-73
2023/07/06 08:35:06;;;;;;;0.60;0.20;;;;;;;;;;4935308;29;20440;-73
2023/07/06 08:37:37;;;;;;;0.60;0.10;;;20.60;1.00;;;;;;4934927;29;20471;-73
2023/07/06 08:40:07;;;;;;;0.60;0.20;;;20.70;1.00;;;;;;4935398;29;20452;-74
2023/07/06 08:42:36;;;;;;;0.63;0.30;;;20.80;1.00;;;;;;4934270;29;20448;-73
2023/07/06 08:45:05;;;;;;;0.70;0.40;;;20.80;1.00;;;;;;4935107;29;20532;-73
2023/07/06 08:47:33;;;;;;;0.70;0.27;;;20.80;1.00;;;;;;4935927;29;20498;-74
2023/07/06 08:50:03;;;;;;;0.70;0.50;;;20.80;1.00;;;;;;4935929;29;20460;-73
2023/07/06 08:52:31;;;;;;;0.60;0.20;;;20.80;1.00;;;;;;4935487;29;20440;-73
2023/07/06 08:55:01;;;;;;;1.00;0.83;;;20.90;1.00;;;;;;4935148;29;20585;-72
2023/07/06 08:57:30;;;;;;;0.60;0.10;;;20.90;1.00;;;;;;4936224;29;20514;-73
2023/07/06 08:59:59;;;;;;;0.60;0.20;;;21.00;1.00;;;;;;4938427;29;20473;-73
2023/07/06 09:02:28;;;;;;;2.30;1.40;;;21.00;1.00;;;;;;4939723;29;20499;-73
2023/07/06 09:05:01;;;;;;;0.60;0.13;;;21.10;1.00;;;;;;4939426;29;20490;-73
2023/07/06 09:07:34;;;;;;;0.60;0.10;;;21.20;1.00;;;;;;4939392;29;20468;-73
2023/07/06 09:10:12;;;;;;;0.70;0.30;;;21.40;1.00;;;;;;4939417;28;20525;-73
2023/07/06 09:12:52;;;;;;;0.60;0.20;;;21.30;1.00;;;;;;4976071;28;20442;-73
2023/07/06 09:15:25;;;;;;;0.60;0.20;;;;;;;;;;4976451;28;20446;-73
2023/07/06 09:17:57;;;;;;;0.70;0.47;;;21.30;1.00;;;;;;4976662;28;20545;-73
2023/07/06 09:20:27;;;;;;;2.60;0.53;;;21.20;1.00;;;;;;4976639;28;20465;-73
2023/07/06 09:22:55;;;;;;;0.60;0.20;;;21.30;1.00;;;;;;4975889;28;20942;-72
2023/07/06 09:25:28;;;;;;;0.60;0.20;;;21.30;1.00;;;;;;4975866;28;20568;-74
2023/07/06 09:27:58;;;;;;;0.60;0.20;;;21.30;1.00;;;;;;4976003;28;20537;-74
2023/07/06 09:30:33;;;;;;;0.60;0.30;;;21.20;1.00;;;;;;4975680;28;20540;-75
2023/07/06 09:33:06;;;;;;;0.60;0.10;;;21.30;1.00;;;;;;4976039;28;20810;-74
2023/07/06 09:35:36;;;;;;;0.73;0.20;;;21.40;1.00;;;;;;4975544;28;20509;-74
2023/07/06 09:38:06;;;;;;;0.60;0.10;;;21.40;1.00;;;;;;4975910;28;20446;-75
2023/07/06 09:40:38;;;;;;;0.60;0.10;;;21.40;1.00;;;;;;4975223;28;20831;-74
2023/07/06 09:43:17;;;;;;;0.60;0.20;;;21.50;1.00;;;;;;4977097;28;20553;-74
2023/07/06 09:45:45;;;;;;;0.60;0.20;;;21.40;1.00;;;;;;4982545;28;20482;-73
2023/07/06 09:48:30;;;;;;;0.70;0.33;;;21.40;1.00;;;;;;4978860;28;20870;-73
2023/07/06 09:51:08;;;;;;;0.60;0.10;;;21.40;1.00;;;;;;4975466;28;20562;-74
2023/07/06 09:53:53;;;;;;;1.10;0.40;;;21.60;1.00;;;;;;4975994;28;21083;-74
2023/07/06 09:56:23;;;;;;;0.60;0.10;;;21.50;1.00;;;;;;4975752;28;20980;-74
2023/07/06 09:58:52;;;;;;;0.60;0.20;;;21.50;1.00;;;;;;4975778;28;20861;-73
2023/07/06 10:01:27;;;;;;;0.80;0.80;;;21.50;1.00;;;;;;4975661;28;20454;-74
2023/07/06 10:04:04;;;;;;;0.60;0.10;;;21.60;1.00;;;;;;4975541;28;20855;-74
2023/07/06 10:07:00;;;;;;;0.60;0.10;;;21.70;1.00;;;;;;4976153;28;20486;-78
2023/07/06 10:09:55;;;;;;;0.60;0.20;;;21.90;1.00;;;;;;4975639;28;20466;-74
2023/07/06 10:12:38;;;;;;;0.60;0.20;;;22.10;1.00;;;;;;4974179;28;20438;-74
2023/07/06 10:15:14;;;;;;;0.60;0.10;;;22.10;1.00;;;;;;4975325;28;20443;-74
2023/07/06 10:17:49;;;;;;;0.60;0.10;;;22.20;1.00;;;;;;5012906;23;20501;-75
2023/07/06 10:20:26;;;;;;;0.60;0.10;;;22.30;1.00;;;;;;4994402;28;20452;-74
2023/07/06 10:23:18;;;;;;;0.70;0.30;;;22.40;1.00;;;;;;4994831;28;20449;-75
2023/07/06 10:25:56;;;;;;;0.70;0.20;;;22.40;1.00;;;;;;4996264;28;20489;-72
2023/07/06 10:28:38;;;;;;;0.60;0.20;;;22.50;1.00;;;;;;4997859;28;20450;-74
2023/07/06 10:31:11;;;;;;;1.00;0.80;;;22.50;1.00;;;;;;5000733;28;21035;-74
2023/07/06 10:33:43;;;;;;;0.60;0.10;;;;;;;;;;4997541;28;20457;-75
2023/07/06 10:36:13;;;;;;;0.80;0.77;;;22.30;1.00;;;;;;4995660;28;20549;-74
2023/07/06 10:38:41;;;;;;;0.60;0.20;;;;;;;;;;4996310;28;20955;-75
2023/07/06 10:41:21;;;;;;;0.60;0.20;;;22.50;1.00;;;;;;4994328;28;20451;-73
2023/07/06 10:43:51;;;;;;;0.93;0.83;;;22.50;1.00;;;;;;4995897;28;20448;-74
2023/07/06 10:46:30;;;;;;;0.60;0.10;;;22.70;1.00;;;;;;4994701;28;20568;-73
2023/07/06 10:49:07;;;;;;;0.60;0.20;;;22.80;1.00;;;;;;4994131;28;20451;-74
2023/07/06 10:51:47;;;;;;;0.60;0.20;;;22.60;1.00;;;;;;4994770;28;20548;-73
2023/07/06 10:54:18;;;;;;;0.60;0.20;;;22.70;1.00;;;;;;4993733;28;20450;-74
2023/07/06 10:57:00;;;;;;;1.23;0.53;;;22.60;1.00;;;;;;4993496;28;20473;-73
2023/07/06 10:59:37;;;;;;;0.60;0.13;;;22.50;1.00;;;;;;4993612;28;20504;-73
2023/07/06 11:02:18;;;;;;;0.60;0.30;;;22.60;1.00;;;;;;4993250;28;20890;-74
2023/07/06 11:04:57;;;;;;;0.70;0.40;;;22.80;1.00;;;;;;4993762;28;20538;-74
2023/07/06 11:07:41;;;;;;;0.60;0.13;;;22.70;1.00;;;;;;4993401;28;20481;-73
2023/07/06 11:10:15;;;;;;;0.60;0.20;;;;;;;;;;4995366;28;20941;-73
2023/07/06 11:12:52;;;;;;;0.60;0.10;;;22.70;1.00;;;;;;5012716;28;20455;-74
2023/07/06 11:15:28;;;;;;;0.70;0.30;;;22.70;1.00;;;;;;5012900;28;20438;-72
2023/07/06 11:18:03;;;;;;;0.60;0.10;;;22.90;1.00;;;;;;5012989;28;20476;-76
2023/07/06 11:20:31;;;;;;;1.10;0.97;;;22.70;1.00;;;;;;5013158;28;20433;-73
2023/07/06 11:23:02;;;;;;;0.63;0.20;;;22.80;1.00;;;;;;5012345;28;20445;-73
2023/07/06 11:25:31;;;;;;;0.70;0.20;;;23.00;1.00;;;;;;5014297;28;20531;-73
2023/07/06 11:28:04;;;;;;;0.70;0.10;;;23.10;1.00;;;;;;5012924;28;20484;-73
2023/07/06 11:30:40;;;;;;;0.60;0.20;;;22.90;1.00;;;;;;5013636;28;20445;-73
2023/07/06 11:33:15;;;;;;;0.90;0.43;;;23.00;1.00;;;;;;5012863;28;20825;-76
2023/07/06 11:35:52;;;;;;;0.80;0.30;;;23.20;1.00;;;;;;5013086;28;20472;-75
2023/07/06 11:38:31;;;;;;;0.70;0.20;;;23.20;1.00;;;;;;5012769;28;20503;-75
2023/07/06 11:41:26;;;;;;;0.67;0.20;;;23.20;1.00;;;;;;5012901;28;20563;-75
2023/07/06 11:44:24;;;;;;;0.70;0.20;;;23.10;1.00;;;;;;5012188;28;20538;-74
2023/07/06 11:47:10;;;;;;;0.70;0.10;;;23.10;1.00;;;;;;5012408;28;20632;-75
2023/07/06 11:49:44;;;;;;;0.80;0.30;;;23.20;1.00;;;;;;5012112;28;20452;-73
2023/07/06 11:52:15;;;;;;;2.40;0.43;;;23.30;1.00;;;;;;5012003;28;20450;-75
2023/07/06 11:54:51;;;;;;;0.70;0.20;;;23.40;1.00;;;;;;5012230;28;20458;-74
2023/07/06 11:57:25;;;;;;;0.70;0.10;;;23.60;1.00;;;;;;5012227;28;20519;-75
2023/07/06 12:00:18;;;;;;;0.70;0.20;;;23.70;1.00;;;;;;5012420;28;20532;-74
2023/07/06 12:02:57;;;;;;;0.70;0.13;;;23.80;1.00;;;;;;5011647;28;20512;-73
2023/07/06 12:05:29;;;;;;;0.70;0.20;;;23.90;1.00;;;;;;5013138;28;20515;-76
2023/07/06 12:08:00;;;;;;;0.70;0.20;;;23.90;1.00;;;;;;5012858;28;20489;-74
2023/07/06 12:10:31;;;;;;;0.70;0.20;;;24.00;1.00;;;;;;5013047;28;20438;-75
2023/07/06 12:12:59;;;;;;;0.70;0.20;;;24.10;1.00;;;;;;5012489;28;20492;-73
2023/07/06 12:15:29;;;;;;;0.80;0.40;;;24.20;1.00;;;;;;5012977;28;20533;-73
2023/07/06 12:18:01;;;;;;;0.70;0.20;;;24.30;1.00;;;;;;5013154;28;20501;-76
2023/07/06 12:20:31;;;;;;;0.80;0.37;;;24.30;1.00;;;;;;5012740;28;20934;-75
2023/07/06 12:23:01;;;;;;;0.70;0.10;;;24.30;1.00;;;;;;5012205;28;20473;-75
2023/07/06 12:25:29;;;;;;;0.70;0.10;;;24.30;1.00;;;;;;5012691;28;20455;-75
2023/07/06 12:27:58;;;;;;;0.70;0.10;;;24.30;1.00;;;;;;5012538;28;20841;-75
2023/07/06 12:30:33;;;;;;;0.70;0.10;;;24.30;1.00;;;;;;5012899;28;20453;-74
2023/07/06 12:33:05;;;;;;;0.90;0.43;;;24.30;1.00;;;;;;5012700;28;20473;-73
2023/07/06 12:35:34;;;;;;;1.40;0.77;;;24.10;1.00;;;;;;5015582;28;20449;-75
2023/07/06 12:38:06;;;;;;;0.70;0.30;;;24.10;1.00;;;;;;5015789;28;21056;-75
2023/07/06 12:40:34;;;;;;;0.70;0.10;;;24.10;1.00;;;;;;5017315;28;20477;-76
2023/07/06 12:43:03;;;;;;;0.80;0.40;;;24.10;1.00;;;;;;5016178;28;20507;-75
2023/07/06 12:45:32;;;;;;;1.17;1.07;;;24.30;1.00;;;;;;5017015;28;20546;-75
2023/07/06 12:48:04;;;;;;;0.70;0.10;;;24.30;1.00;;;;;;5019716;28;20479;-75
2023/07/06 12:50:37;;;;;;;0.70;0.20;;;24.20;1.00;;;;;;5017282;28;20467;-74
2023/07/06 12:53:09;;;;;;;0.70;0.20;;;24.50;1.00;;;;;;5016898;28;20446;-75
2023/07/06 12:55:41;;;;;;;0.70;0.20;;;24.60;1.00;;;;;;5016879;28;20783;-76
2023/07/06 12:58:16;;;;;;;0.70;0.20;;;24.70;1.00;;;;;;5016937;28;20454;-75
2023/07/06 13:00:48;;;;;;;0.70;0.10;;;24.70;1.00;;;;;;5015825;28;20504;-74
2023/07/06 13:03:17;;;;;;;0.70;0.10;;;24.70;1.00;;;;;;5015762;28;20479;-75
2023/07/06 13:05:54;;;;;;;0.93;0.20;;;24.80;1.00;;;;;;5016789;28;20453;-76
2023/07/06 13:08:23;;;;;;;0.80;0.40;;;24.80;1.00;;;;;;5016634;28;20485;-74
2023/07/06 13:11:02;;;;;;;0.70;0.20;;;24.80;1.00;;;;;;5015616;28;20444;-74
2023/07/06 13:13:35;;;;;;;0.70;0.20;;;24.50;1.00;;;;;;5018229;28;20849;-74
2023/07/06 13:16:07;;;;;;;1.27;0.73;;;24.40;1.00;;;;;;5016980;28;20477;-75
2023/07/06 13:18:40;;;;;;;0.70;0.20;;;24.50;1.00;;;;;;5016413;28;20451;-76
2023/07/06 13:21:16;;;;;;;0.70;0.20;;;24.50;1.00;;;;;;5016679;28;20454;-74
2023/07/06 13:23:45;;;;;;;0.87;0.30;;;24.60;1.00;;;;;;5018744;28;20545;-74
2023/07/06 13:26:13;;;;;;;1.10;0.77;;;24.60;1.00;;;;;;5019733;28;20473;-73
2023/07/06 13:28:44;;;;;;;1.63;0.50;;;24.50;1.00;;;;;;5021083;28;20452;-73
2023/07/06 13:31:14;;;;;;;0.70;0.33;;;24.50;1.00;;;;;;5019804;28;20455;-76
2023/07/06 13:33:43;;;;;;;0.70;0.20;;;24.50;1.00;;;;;;5019457;28;20454;-75
2023/07/06 13:36:16;;;;;;;0.70;0.20;;;24.70;1.00;;;;;;5016136;28;20467;-74
2023/07/06 13:38:46;;;;;;;0.70;0.10;;;24.80;1.00;;;;;;5016122;28;20464;-75
2023/07/06 13:41:18;;;;;;;0.70;0.20;;;24.90;1.00;;;;;;5016678;28;20448;-75
2023/07/06 13:43:47;;;;;;;0.70;0.20;;;25.10;1.00;;;;;;5015176;28;20488;-76
2023/07/06 13:46:16;;;;;;;0.70;0.10;;;25.20;1.00;;;;;;5015612;28;20538;-73
2023/07/06 13:48:45;;;;;;;0.70;0.20;;;25.20;1.00;;;;;;5016620;28;20895;-74
2023/07/06 13:51:15;;;;;;;0.70;0.20;;;25.40;1.00;;;;;;5020621;28;20542;-74
2023/07/06 13:53:47;;;;;;;0.70;0.10;;;25.40;1.00;;;;;;5017422;28;20526;-74
2023/07/06 13:56:15;;;;;;;0.70;0.10;;;25.50;1.00;;;;;;5021342;28;20475;-75
2023/07/06 13:58:44;;;;;;;0.70;0.20;;;25.50;1.00;;;;;;5019034;28;20530;-76
2023/07/06 14:01:14;;;;;;;0.70;0.20;;;25.70;1.00;;;;;;5015531;28;20508;-73
2023/07/06 14:03:45;;;;;;;0.70;0.10;;;25.60;1.00;;;;;;5014831;28;20853;-75
2023/07/06 14:06:14;;;;;;;0.70;0.10;;;25.70;1.00;;;;;;5015689;28;20977;-75
2023/07/06 14:08:42;;;;;;;0.80;0.30;;;25.70;1.00;;;;;;5014961;28;20487;-74
2023/07/06 14:11:10;;;;;;;0.70;0.17;;;25.60;1.00;;;;;;5017167;28;20498;-75
2023/07/06 14:13:39;;;;;;;0.80;0.37;;;25.50;1.00;;;;;;5016597;28;20544;-75
2023/07/06 14:16:10;;;;;;;0.80;0.50;;;25.10;1.00;;;;;;5016784;28;20492;-74
2023/07/06 14:18:38;;;;;;;0.80;0.27;;;25.10;1.00;;;;;;5015521;28;20444;-74
2023/07/06 14:21:07;;;;;;;0.70;0.10;;;25.10;1.00;;;;;;5015998;28;20455;-75
2023/07/06 14:23:35;;;;;;;0.70;0.20;;;25.20;1.00;;;;;;5014425;28;20448;-73
2023/07/06 14:26:03;;;;;;;0.70;0.20;;;25.40;1.00;;;;;;5014366;28;20478;-75
2023/07/06 14:28:32;;;;;;;0.70;0.30;;;25.40;1.00;;;;;;5014426;28;20488;-76
2023/07/06 14:31:02;;;;;;;0.70;0.20;;;25.70;1.00;;;;;;5014082;28;20889;-76
2023/07/06 14:33:31;;;;;;;0.70;0.10;;;26.00;1.00;;;;;;5014254;28;20519;-73
2023/07/06 14:35:59;;;;;;;0.70;0.20;;;26.20;1.00;;;;;;5014616;28;20511;-74
2023/07/06 14:38:28;;;;;;;0.70;0.20;;;26.40;1.00;;;;;;5014592;28;20446;-74
2023/07/06 14:41:01;;;;;;;0.80;0.40;;;26.40;1.00;;;;;;5014337;28;20519;-74
2023/07/06 14:43:29;;;;;;;0.70;0.10;;;26.60;1.00;;;;;;5013658;28;20480;-74
2023/07/06 14:46:01;;;;;;;0.70;0.20;;;;;;;;;;5014728;28;20487;-75
2023/07/06 14:48:29;;;;;;;0.70;0.10;;;26.80;1.00;;;;;;5014440;28;21048;-75
2023/07/06 14:51:03;;;;;;;0.70;0.17;;;26.80;1.00;;;;;;5014031;28;20531;-73
2023/07/06 14:53:35;;;;;;;0.70;0.10;;;;;;;;;;5013690;28;20450;-73
2023/07/06 14:56:03;;;;;;;0.70;0.10;;;26.80;1.00;;;;;;5013676;28;20840;-74
2023/07/06 14:58:31;;;;;;;0.80;0.20;;;27.00;1.00;;;;;;5013863;28;20444;-73
2023/07/06 15:00:59;;;;;;;0.70;0.10;;;27.00;1.00;;;;;;5013802;28;20821;-74
2023/07/06 15:03:27;;;;;;;0.70;0.10;;;27.20;1.00;;;;;;5013998;28;20447;-75
2023/07/06 15:06:01;;;;;;;0.70;0.20;;;27.40;1.00;;;;;;5013699;28;20448;-75
2023/07/06 15:08:29;;;;;;;0.70;0.20;;;27.40;1.00;;;;;;5014381;28;20487;-76
2023/07/06 15:10:58;;;;;;;0.70;0.20;;;27.10;1.00;;;;;;5013631;28;20523;-73
2023/07/06 15:13:26;;;;;;;0.70;0.20;;;27.10;1.00;;;;;;5014003;28;20458;-73
2023/07/06 15:15:54;;;;;;;1.57;0.70;;;26.80;1.00;;;;;;5013519;28;20543;-74
2023/07/06 15:18:22;;;;;;;0.70;0.20;;;26.50;1.00;;;;;;5014002;28;20786;-75
2023/07/06 15:21:10;;;;;;;0.70;0.20;;;26.50;1.00;;;;;;5013809;28;20960;-75
2023/07/06 15:23:40;;;;;;;1.10;0.40;;;26.50;1.00;;;;;;5014057;28;20439;-74
2023/07/06 15:26:10;;;;;;;0.70;0.20;;;26.40;1.00;;;;;;5013925;28;20558;-74
2023/07/06 15:28:38;;;;;;;0.80;0.30;;;26.40;1.00;;;;;;5013535;28;20551;-73
2023/07/06 15:31:07;;;;;;;0.70;0.10;;;26.60;1.00;;;;;;5013547;28;20534;-74
2023/07/06 15:33:35;;;;;;;0.70;0.20;;;26.70;1.00;;;;;;5013226;28;20475;-74
2023/07/06 15:36:03;;;;;;;0.70;0.10;;;27.00;1.00;;;;;;5012892;28;20471;-74
2023/07/06 15:38:31;;;;;;;0.70;0.20;;;27.00;1.00;;;;;;5013858;28;20501;-75
2023/07/06 15:40:59;;;;;;;1.17;1.07;;;27.30;1.00;;;;;;5013398;28;20452;-75
2023/07/06 15:43:28;;;;;;;0.70;0.20;;;27.30;1.00;;;;;;5012128;28;20888;-75
2023/07/06 15:45:56;;;;;;;0.70;0.20;;;27.60;1.00;;;;;;5013140;28;20539;-75
2023/07/06 15:48:25;;;;;;;0.70;0.20;;;27.50;1.00;;;;;;5013385;28;20487;-72
2023/07/06 15:50:53;;;;;;;0.70;0.20;;;27.60;1.00;;;;;;5012933;28;20994;-73
2023/07/06 15:53:21;;;;;;;1.93;1.20;;;27.70;1.00;;;;;;5012953;28;20506;-74
2023/07/06 15:55:50;;;;;;;0.70;0.20;;;;;;;;;;5013402;28;20447;-73
2023/07/06 15:58:18;;;;;;;0.70;0.20;;;27.60;1.00;;;;;;5013142;28;20466;-73
2023/07/06 16:00:52;;;;;;;0.70;0.10;;;27.60;1.00;;;;;;5013460;28;20448;-73
2023/07/06 16:03:21;;;;;;;0.70;0.10;;;27.70;1.00;;;;;;5012951;28;20543;-75
2023/07/06 16:05:49;;;;;;;0.70;0.20;;;28.20;1.00;;;;;;5012961;28;20618;-73
2023/07/06 16:08:17;;;;;;;0.77;0.40;;;28.20;1.00;;;;;;5013233;28;20511;-74
2023/07/06 16:10:50;;;;;;;0.70;0.20;;;28.50;1.00;;;;;;5016819;28;20498;-75
2023/07/06 16:13:18;;;;;;;0.70;0.20;;;28.70;1.00;;;;;;5016352;28;20448;-75
2023/07/06 16:15:47;;;;;;;0.70;0.10;;;28.90;1.00;;;;;;5016563;28;20448;-75
2023/07/06 16:18:16;;;;;;;0.70;0.10;;;29.00;1.00;;;;;;5013829;23;20493;-76
2023/07/06 16:20:51;;;;;;;1.33;0.43;;;29.10;1.00;;;;;;4977909;28;20540;-76
2023/07/06 16:23:19;;;;;;;0.70;0.20;;;29.10;1.00;;;;;;4978564;28;20960;-77
2023/07/06 16:25:47;;;;;;;0.70;0.10;;;29.40;1.00;;;;;;4980147;28;20475;-76
2023/07/06 16:28:15;;;;;;;0.70;0.17;;;29.60;1.00;;;;;;4987161;28;20546;-76
2023/07/06 16:30:43;;;;;;;0.70;0.20;;;29.60;1.00;;;;;;4988184;28;20471;-76
2023/07/06 16:33:11;;;;;;;0.70;0.10;;;;;;;;;;4983311;28;20505;-76
2023/07/06 16:35:41;;;;;;;0.93;0.83;;;30.00;1.00;;;;;;4978884;28;20554;-75
2023/07/06 16:38:09;;;;;;;0.70;0.10;;;30.60;1.00;;;;;;4979506;28;20502;-76
2023/07/06 16:40:37;;;;;;;0.70;0.30;;;30.10;1.00;;;;;;4978700;28;20461;-75
2023/07/06 16:43:05;;;;;;;0.70;0.20;;;30.00;1.00;;;;;;4977942;28;20551;-76
2023/07/06 16:45:34;;;;;;;0.70;0.10;;;30.00;1.00;;;;;;4978546;28;20439;-76
2023/07/06 16:48:02;;;;;;;0.70;0.10;;;30.10;1.00;;;;;;4977641;28;20476;-76
2023/07/06 16:50:30;;;;;;;0.70;0.20;;;30.10;1.00;;;;;;4977825;28;20448;-76
2023/07/06 16:52:59;;;;;;;0.80;0.40;;;30.20;1.00;;;;;;4977778;28;20496;-75
2023/07/06 16:55:27;;;;;;;0.70;0.20;;;30.40;1.00;;;;;;4977890;28;20444;-76
2023/07/06 16:57:55;;;;;;;0.70;0.10;;;30.40;1.00;;;;;;4977867;28;20476;-74
2023/07/06 17:00:23;;;;;;;0.70;0.10;;;30.30;1.00;;;;;;4977455;28;20500;-75
2023/07/06 17:02:51;;;;;;;0.70;0.10;;;30.40;1.00;;;;;;4977716;28;20453;-76
2023/07/06 17:05:19;;;;;;;0.70;0.10;;;30.70;1.00;;;;;;4977843;28;20445;-76
2023/07/06 17:07:47;;;;;;;0.70;0.20;;;31.00;1.00;;;;;;4977947;28;20533;-75
2023/07/06 17:10:17;;;;;;;0.70;0.20;;;31.10;1.00;;;;;;4979724;28;21033;-75
2023/07/06 17:12:45;;;;;;;0.70;0.20;;;31.20;1.00;;;;;;4996541;28;20888;-75
2023/07/06 17:15:16;;;;;;;0.70;0.17;;;31.30;1.00;;;;;;4996828;28;20488;-75
2023/07/06 17:17:48;;;;;;;0.70;0.10;;;31.30;1.00;;;;;;4996770;28;20843;-75
2023/07/06 17:20:16;;;;;;;0.70;0.20;;;31.20;1.00;;;;;;4996367;28;20461;-75
2023/07/06 17:22:44;;;;;;;0.70;0.10;;;31.40;1.00;;;;;;4995958;28;20444;-76